Terminal Aerodrome Forecast
Issued by NWS Spokane, WA

Home | Current Version | Previous Version | Text Only | Print | Product List | Glossary On
Versions: 1 2 3 4 5 6 7 8 9 10 11 12 13 14 15 16 17 18 19 20 21 22 23 24 25 26 27 28 29 30 31 32 33 34 35 36 37 38 39 40 41 42 43 44 45 46 47 48 49 50
000
FTUS46 KOTX 261730
TAFGEG
TAF
KGEG 261730Z 2618/2718 00000KT 2SM -SN BR SCT006 BKN018 OVC035
      TEMPO 2618/2621 1SM -SN BR BKN006 OVC018
     FM262100 19006KT 3SM -SHSN BKN008 OVC015
     FM270200 VRB03KT 5SM BR VCSH SCT008 BKN015 OVC025
     FM270700 VRB04KT 2SM BR BKN015 OVC025
     FM271600 12004KT 1SM -SHSN BR OVC007=

USA.gov is the U.S. government's official web portal to all federal, state and local government web resources and services.